createdAt,value
2019-05-18T00:00:49.482Z,0.00
2019-05-18T00:01:49.477Z,0.00
2019-05-18T00:02:49.471Z,0.00
2019-05-18T00:03:49.463Z,0.00
2019-05-18T00:04:49.460Z,0.00
2019-05-18T00:05:49.455Z,0.00
2019-05-18T00:06:49.446Z,0.00
2019-05-18T00:07:49.436Z,0.00
2019-05-18T00:08:49.426Z,0.00
2019-05-18T00:09:49.420Z,0.00
2019-05-18T00:10:49.413Z,0.00
2019-05-18T00:11:49.401Z,0.00
2019-05-18T00:12:49.400Z,0.00
2019-05-18T00:13:49.391Z,0.00
2019-05-18T00:14:49.380Z,0.00
2019-05-18T00:15:49.372Z,0.00
2019-05-18T00:16:49.367Z,0.00
2019-05-18T00:17:49.362Z,0.00
2019-05-18T00:18:49.355Z,0.00
2019-05-18T00:19:49.350Z,0.00
2019-05-18T00:20:49.337Z,0.00
2019-05-18T00:21:49.328Z,0.00
2019-05-18T00:22:49.321Z,0.00
2019-05-18T00:23:49.317Z,0.00
2019-05-18T00:24:49.311Z,0.00
2019-05-18T00:25:49.302Z,0.00
2019-05-18T00:26:49.292Z,0.00
2019-05-18T00:27:49.285Z,0.00
2019-05-18T00:28:49.274Z,0.00
2019-05-18T00:29:49.267Z,0.00
2019-05-18T00:30:49.262Z,0.00
2019-05-18T00:31:49.265Z,0.00
2019-05-18T00:32:49.243Z,0.00
2019-05-18T00:33:49.240Z,0.00
2019-05-18T00:34:49.229Z,0.00
2019-05-18T00:35:49.228Z,0.00
2019-05-18T00:36:49.218Z,0.00
2019-05-18T00:37:49.212Z,0.00
2019-05-18T00:38:49.202Z,0.00
2019-05-18T00:39:49.193Z,0.00
2019-05-18T00:40:49.187Z,0.00
2019-05-18T00:41:49.173Z,0.00
2019-05-18T00:42:49.169Z,0.00
2019-05-18T00:43:49.163Z,0.00
2019-05-18T00:44:49.157Z,0.00
2019-05-18T00:45:49.152Z,0.00
2019-05-18T00:46:49.140Z,0.00
2019-05-18T00:47:49.134Z,0.00
2019-05-18T00:48:49.128Z,0.00
2019-05-18T00:49:49.121Z,0.00
2019-05-18T00:50:49.112Z,0.00
2019-05-18T00:51:49.105Z,0.00
2019-05-18T00:52:49.089Z,0.00
2019-05-18T00:53:49.083Z,0.00
2019-05-18T00:54:49.076Z,0.00
2019-05-18T00:55:49.067Z,0.00
2019-05-18T00:56:49.064Z,0.00
2019-05-18T00:57:49.056Z,0.00
2019-05-18T00:58:49.051Z,0.00
2019-05-18T00:59:49.043Z,0.00
2019-05-18T01:00:49.037Z,0.00
2019-05-18T01:01:49.022Z,0.00
2019-05-18T01:02:49.020Z,0.00
2019-05-18T01:03:49.013Z,0.00
2019-05-18T01:04:49.001Z,0.00
2019-05-18T01:05:48.996Z,0.00
2019-05-18T01:06:48.983Z,0.00
2019-05-18T01:07:48.975Z,0.00
2019-05-18T01:08:48.971Z,0.00
2019-05-18T01:09:48.962Z,0.00
2019-05-18T01:10:48.961Z,0.00
2019-05-18T01:11:48.950Z,0.00
2019-05-18T01:12:48.946Z,0.00
2019-05-18T01:13:48.929Z,0.00
2019-05-18T01:14:48.923Z,0.00
2019-05-18T01:15:48.917Z,0.00
2019-05-18T01:16:48.911Z,0.00
2019-05-18T01:17:57.057Z,0.00
2019-05-18T01:18:48.893Z,0.00
2019-05-18T01:19:48.889Z,0.00
2019-05-18T01:20:48.880Z,0.00
2019-05-18T01:21:48.876Z,0.00
2019-05-18T01:22:48.865Z,0.00
2019-05-18T01:23:48.855Z,0.00
2019-05-18T01:24:48.847Z,0.00
2019-05-18T01:25:48.837Z,0.00
2019-05-18T01:26:48.828Z,0.00
2019-05-18T01:27:48.822Z,0.00
2019-05-18T01:28:48.816Z,0.00
2019-05-18T01:29:48.808Z,0.00
2019-05-18T01:30:48.803Z,0.00
2019-05-18T01:31:48.795Z,0.00
2019-05-18T01:32:48.786Z,0.00
2019-05-18T01:33:48.775Z,0.00
2019-05-18T01:34:48.774Z,0.00
2019-05-18T01:35:48.764Z,0.00
2019-05-18T01:36:48.754Z,0.00
2019-05-18T01:37:48.746Z,0.00
2019-05-18T01:38:48.735Z,0.00
2019-05-18T01:39:48.728Z,0.00
2019-05-18T01:40:48.727Z,0.00
2019-05-18T01:41:48.719Z,0.00
2019-05-18T01:42:48.710Z,0.00
2019-05-18T01:43:48.702Z,0.00
2019-05-18T01:44:48.688Z,0.00
2019-05-18T01:45:48.682Z,0.00
2019-05-18T01:46:48.680Z,0.00
2019-05-18T01:47:48.669Z,0.00
2019-05-18T01:48:48.667Z,0.00
2019-05-18T01:49:48.686Z,0.00
2019-05-18T01:50:48.649Z,0.00
2019-05-18T01:51:48.642Z,0.00
2019-05-18T01:52:48.647Z,0.00
2019-05-18T01:53:48.628Z,0.00
2019-05-18T01:54:48.619Z,0.00
2019-05-18T01:55:48.617Z,0.00
2019-05-18T01:56:48.606Z,0.00
2019-05-18T01:57:48.594Z,0.00
2019-05-18T01:58:48.587Z,0.00
2019-05-18T01:59:48.577Z,0.00
2019-05-18T02:00:48.574Z,0.00
2019-05-18T02:01:48.568Z,0.00
2019-05-18T02:02:48.562Z,0.00
2019-05-18T02:03:48.555Z,0.00
2019-05-18T02:04:48.543Z,0.00
2019-05-18T02:05:48.535Z,0.00
2019-05-18T02:06:48.539Z,0.00
2019-05-18T02:07:48.535Z,0.00
2019-05-18T02:08:48.512Z,0.00
2019-05-18T02:09:48.509Z,0.00
2019-05-18T02:10:48.497Z,0.00
2019-05-18T02:11:48.489Z,0.00
2019-05-18T02:12:48.486Z,0.00
2019-05-18T02:13:48.478Z,0.00
2019-05-18T02:14:48.469Z,0.00
2019-05-18T02:15:48.464Z,0.00
2019-05-18T02:16:48.450Z,0.00
2019-05-18T02:17:48.443Z,0.00
2019-05-18T02:18:48.443Z,0.00
2019-05-18T02:19:48.431Z,0.00
2019-05-18T02:20:48.428Z,0.00
2019-05-18T02:21:48.419Z,0.00
2019-05-18T02:22:48.411Z,0.00
2019-05-18T02:23:48.400Z,0.00
2019-05-18T02:24:48.398Z,0.00
2019-05-18T02:25:48.391Z,0.00
2019-05-18T02:26:48.382Z,0.00
2019-05-18T02:27:48.373Z,0.00
2019-05-18T02:28:48.361Z,0.00
2019-05-18T02:29:48.354Z,0.00
2019-05-18T02:30:48.350Z,0.00
2019-05-18T02:31:48.340Z,0.00
2019-05-18T02:32:48.358Z,0.00
2019-05-18T02:33:48.329Z,0.00
2019-05-18T02:34:48.326Z,0.00
2019-05-18T02:35:48.321Z,0.00
2019-05-18T02:36:48.307Z,0.00
2019-05-18T02:37:48.304Z,0.00
2019-05-18T02:38:48.299Z,0.00
2019-05-18T02:39:48.293Z,0.00
2019-05-18T02:40:48.286Z,0.00
2019-05-18T02:41:48.273Z,0.00
2019-05-18T02:42:48.261Z,0.00
2019-05-18T02:43:48.254Z,0.00
2019-05-18T02:44:48.253Z,0.00
2019-05-18T02:45:48.248Z,0.00
2019-05-18T02:46:48.241Z,0.00
2019-05-18T02:47:48.235Z,0.00
2019-05-18T02:48:50.478Z,0.00
2019-05-18T02:49:48.217Z,0.00
2019-05-18T02:50:48.207Z,0.00
2019-05-18T02:51:48.198Z,0.00
2019-05-18T02:52:48.199Z,0.00
2019-05-18T02:53:48.192Z,0.00
2019-05-18T02:54:48.186Z,0.00
2019-05-18T02:55:48.170Z,0.00
2019-05-18T02:56:48.168Z,0.00
2019-05-18T02:57:48.161Z,0.00
2019-05-18T02:58:48.154Z,0.00
2019-05-18T02:59:48.149Z,0.00
2019-05-18T03:00:48.139Z,0.00
2019-05-18T03:01:48.133Z,0.00
2019-05-18T03:02:48.123Z,0.00
2019-05-18T03:03:48.117Z,0.00
2019-05-18T03:04:48.116Z,0.00
2019-05-18T03:05:48.111Z,0.00
2019-05-18T03:06:48.098Z,0.00
2019-05-18T03:07:48.088Z,0.00
2019-05-18T03:08:48.083Z,0.00
2019-05-18T03:09:48.072Z,0.00
2019-05-18T03:10:48.073Z,0.00
2019-05-18T03:11:48.063Z,0.00
2019-05-18T03:12:48.051Z,0.00
2019-05-18T03:13:48.045Z,0.00
2019-05-18T03:14:48.040Z,0.00
2019-05-18T03:15:48.034Z,0.00
2019-05-18T03:16:48.045Z,0.00
2019-05-18T03:17:48.020Z,0.00
2019-05-18T03:19:06.286Z,0.00
2019-05-18T03:19:48.007Z,0.00
2019-05-18T03:20:47.995Z,0.00
2019-05-18T03:21:47.991Z,0.00
2019-05-18T03:22:47.984Z,0.00
2019-05-18T03:23:47.969Z,0.00
2019-05-18T03:24:47.968Z,0.00
2019-05-18T03:25:47.960Z,0.00
2019-05-18T03:26:47.949Z,0.00
2019-05-18T03:27:47.940Z,0.00
2019-05-18T03:28:47.937Z,0.00
2019-05-18T03:29:47.930Z,5.63
2019-05-18T03:30:47.950Z,5.63
2019-05-18T03:31:47.918Z,5.63
2019-05-18T03:32:47.912Z,5.63
2019-05-18T03:33:47.900Z,5.63
2019-05-18T03:34:47.900Z,5.63
2019-05-18T03:35:47.886Z,5.63
2019-05-18T03:36:47.886Z,5.63
2019-05-18T03:37:47.878Z,11.25
2019-05-18T03:38:47.864Z,11.25
2019-05-18T03:39:47.857Z,11.25
2019-05-18T03:40:47.847Z,11.25
2019-05-18T03:41:47.864Z,11.25
2019-05-18T03:42:47.834Z,16.88
2019-05-18T03:43:47.833Z,16.88
2019-05-18T03:44:47.816Z,16.88
2019-05-18T03:45:47.818Z,16.88
2019-05-18T03:46:47.804Z,16.88
2019-05-18T03:47:47.794Z,22.50
2019-05-18T03:48:47.790Z,22.50
2019-05-18T03:49:47.785Z,22.50
2019-05-18T03:50:47.773Z,28.13
2019-05-18T03:51:47.765Z,28.13
2019-05-18T03:52:47.754Z,28.13
2019-05-18T03:53:47.749Z,28.13
2019-05-18T03:54:47.743Z,33.75
2019-05-18T03:55:47.740Z,33.75
2019-05-18T03:56:47.737Z,39.38
2019-05-18T03:57:47.722Z,39.38
2019-05-18T03:58:47.714Z,39.38
2019-05-18T03:59:47.704Z,45.00
2019-05-18T04:00:47.706Z,45.00
2019-05-18T04:01:47.691Z,50.63
2019-05-18T04:02:47.684Z,50.63
2019-05-18T04:03:47.676Z,56.25
2019-05-18T04:04:47.664Z,56.25
2019-05-18T04:05:47.655Z,61.88
2019-05-18T04:06:47.648Z,67.50
2019-05-18T04:07:47.645Z,67.50
2019-05-18T04:08:47.649Z,73.13
2019-05-18T04:09:47.629Z,73.13
2019-05-18T04:10:47.624Z,78.75
2019-05-18T04:11:47.617Z,84.38
2019-05-18T04:12:47.605Z,84.38
2019-05-18T04:13:47.600Z,90.00
2019-05-18T04:14:47.603Z,95.63
2019-05-18T04:15:47.595Z,101.25
2019-05-18T04:16:47.591Z,112.50
2019-05-18T04:17:47.569Z,118.13
2019-05-18T04:18:47.558Z,129.38
2019-05-18T04:19:47.765Z,135.00
2019-05-18T04:20:47.547Z,140.63
2019-05-18T04:21:47.541Z,140.63
2019-05-18T04:22:47.534Z,146.25
2019-05-18T04:23:47.532Z,151.88
2019-05-18T04:24:47.514Z,151.88
2019-05-18T04:25:47.507Z,151.88
2019-05-18T04:26:47.502Z,151.88
2019-05-18T04:27:47.493Z,151.88
2019-05-18T04:28:47.491Z,146.25
2019-05-18T04:29:47.490Z,140.63
2019-05-18T04:30:47.473Z,140.63
2019-05-18T04:31:47.466Z,135.00
2019-05-18T04:32:47.467Z,135.00
2019-05-18T04:33:47.455Z,129.38
2019-05-18T04:34:47.448Z,129.38
2019-05-18T04:35:47.442Z,118.13
2019-05-18T04:36:47.428Z,106.88
2019-05-18T04:37:47.430Z,95.63
2019-05-18T04:38:47.416Z,90.00
2019-05-18T04:39:47.407Z,84.38
2019-05-18T04:40:47.406Z,78.75
2019-05-18T04:41:47.400Z,78.75
2019-05-18T04:42:47.400Z,84.38
2019-05-18T04:43:47.390Z,95.63
2019-05-18T04:44:47.378Z,95.63
2019-05-18T04:45:47.373Z,129.38
2019-05-18T04:46:47.378Z,78.75
2019-05-18T04:47:48.701Z,73.13
2019-05-18T04:48:47.351Z,73.13
2019-05-18T04:50:03.914Z,73.13
2019-05-18T04:50:47.338Z,73.13
2019-05-18T04:51:47.330Z,73.13
2019-05-18T04:52:47.329Z,73.13
2019-05-18T04:53:47.320Z,73.13
2019-05-18T04:54:47.324Z,73.13
2019-05-18T04:55:47.310Z,73.13
2019-05-18T04:56:47.304Z,73.13
2019-05-18T04:57:47.295Z,78.75
2019-05-18T04:58:47.286Z,78.75
2019-05-18T04:59:47.277Z,78.75
2019-05-18T05:00:47.279Z,78.75
2019-05-18T05:01:47.274Z,84.38
2019-05-18T05:02:47.260Z,84.38
2019-05-18T05:03:47.253Z,84.38
2019-05-18T05:04:47.251Z,84.38
2019-05-18T05:05:47.247Z,84.38
2019-05-18T05:06:47.241Z,95.63
2019-05-18T05:07:47.276Z,90.00
2019-05-18T05:08:47.226Z,90.00
2019-05-18T05:09:47.218Z,90.00
2019-05-18T05:10:47.215Z,90.00
2019-05-18T05:11:47.205Z,95.63
2019-05-18T05:12:47.205Z,95.63
2019-05-18T05:13:47.196Z,95.63
2019-05-18T05:14:47.190Z,95.63
2019-05-18T05:15:47.184Z,95.63
2019-05-18T05:16:47.171Z,95.63
2019-05-18T05:17:47.167Z,95.63
2019-05-18T05:18:47.170Z,90.00
2019-05-18T05:19:47.159Z,90.00
2019-05-18T05:20:47.147Z,90.00
2019-05-18T05:21:47.143Z,90.00
2019-05-18T05:22:47.137Z,90.00
2019-05-18T05:23:47.131Z,90.00
2019-05-18T05:24:47.134Z,90.00
2019-05-18T05:25:47.123Z,84.38
2019-05-18T05:26:47.116Z,84.38
2019-05-18T05:27:47.109Z,84.38
2019-05-18T05:28:47.101Z,84.38
2019-05-18T05:29:47.094Z,84.38
2019-05-18T05:30:47.085Z,84.38
2019-05-18T05:31:47.077Z,84.38
2019-05-18T05:32:47.079Z,84.38
2019-05-18T05:33:47.072Z,84.38
2019-05-18T05:34:47.062Z,84.38
2019-05-18T05:35:47.053Z,84.38
2019-05-18T05:36:47.055Z,84.38
2019-05-18T05:37:47.045Z,84.38
2019-05-18T05:38:47.043Z,84.38
2019-05-18T05:39:47.038Z,84.38
2019-05-18T05:40:47.026Z,84.38
2019-05-18T05:41:47.025Z,78.75
2019-05-18T05:42:47.018Z,78.75
2019-05-18T05:43:47.010Z,78.75
2019-05-18T05:44:47.005Z,78.75
2019-05-18T05:45:47.000Z,78.75
2019-05-18T05:46:46.991Z,84.38
2019-05-18T05:47:46.984Z,84.38
2019-05-18T05:48:46.977Z,78.75
2019-05-18T05:49:46.968Z,78.75
2019-05-18T05:50:46.967Z,78.75
2019-05-18T05:51:46.967Z,78.75
2019-05-18T05:52:46.951Z,78.75
2019-05-18T05:53:46.945Z,78.75
2019-05-18T05:54:46.942Z,84.38
2019-05-18T05:55:46.935Z,84.38
2019-05-18T05:56:46.935Z,90.00
2019-05-18T05:57:46.926Z,90.00
2019-05-18T05:58:46.918Z,101.25
2019-05-18T05:59:46.913Z,112.50
2019-05-18T06:00:46.901Z,123.75
2019-05-18T06:01:46.900Z,135.00
2019-05-18T06:02:46.893Z,135.00
2019-05-18T06:03:46.888Z,140.63
2019-05-18T06:04:46.895Z,146.25
2019-05-18T06:05:46.881Z,146.25
2019-05-18T06:06:46.868Z,146.25
2019-05-18T06:07:46.862Z,151.88
2019-05-18T06:08:46.859Z,151.88
2019-05-18T06:09:46.855Z,163.13
2019-05-18T06:10:46.849Z,163.13
2019-05-18T06:11:46.839Z,163.13
2019-05-18T06:12:46.831Z,163.13
2019-05-18T06:13:46.822Z,163.13
2019-05-18T06:14:46.817Z,163.13
2019-05-18T06:15:46.861Z,168.75
2019-05-18T06:16:46.809Z,174.38
2019-05-18T06:17:46.802Z,185.63
2019-05-18T06:18:46.814Z,196.88
2019-05-18T06:19:46.791Z,213.75
2019-05-18T06:20:51.331Z,225.00
2019-05-18T06:21:46.781Z,236.25
2019-05-18T06:22:46.781Z,241.88
2019-05-18T06:23:46.771Z,247.50
2019-05-18T06:24:46.761Z,253.13
2019-05-18T06:25:46.753Z,258.75
2019-05-18T06:26:46.745Z,270.00
2019-05-18T06:27:46.740Z,270.00
2019-05-18T06:28:46.738Z,281.25
2019-05-18T06:29:46.735Z,286.88
2019-05-18T06:30:46.729Z,298.13
2019-05-18T06:31:46.721Z,303.75
2019-05-18T06:32:46.712Z,309.38
2019-05-18T06:33:46.708Z,320.63
2019-05-18T06:34:46.704Z,326.25
2019-05-18T06:35:46.703Z,337.50
2019-05-18T06:36:46.701Z,348.75
2019-05-18T06:37:46.692Z,360.00
2019-05-18T06:38:46.684Z,365.63
2019-05-18T06:39:46.677Z,376.88
2019-05-18T06:40:46.675Z,388.13
2019-05-18T06:41:46.674Z,399.38
2019-05-18T06:42:46.667Z,421.88
2019-05-18T06:43:46.658Z,438.75
2019-05-18T06:44:46.652Z,455.63
2019-05-18T06:45:46.645Z,466.88
2019-05-18T06:46:46.639Z,455.63
2019-05-18T06:47:48.502Z,455.63
2019-05-18T06:48:46.635Z,455.63
2019-05-18T06:49:46.631Z,466.88
2019-05-18T06:50:46.631Z,500.63
2019-05-18T06:51:46.622Z,523.13
2019-05-18T06:52:46.627Z,551.25
2019-05-18T06:53:46.612Z,573.75
2019-05-18T06:54:46.616Z,618.75
2019-05-18T06:55:46.606Z,641.25
2019-05-18T06:56:46.598Z,658.13
2019-05-18T06:57:46.596Z,691.88
2019-05-18T06:58:46.589Z,725.63
2019-05-18T06:59:46.583Z,652.50
2019-05-18T07:00:46.584Z,680.63
2019-05-18T07:01:46.586Z,703.13
2019-05-18T07:02:46.581Z,736.88
2019-05-18T07:03:46.575Z,770.63
2019-05-18T07:04:46.568Z,804.38
2019-05-18T07:05:46.565Z,821.25
2019-05-18T07:06:46.562Z,832.50
2019-05-18T07:07:46.555Z,855.00
2019-05-18T07:08:46.560Z,883.13
2019-05-18T07:09:46.557Z,894.38
2019-05-18T07:10:46.548Z,883.13
2019-05-18T07:11:46.547Z,855.00
2019-05-18T07:12:46.548Z,821.25
2019-05-18T07:13:46.574Z,765.00
2019-05-18T07:14:46.548Z,725.63
2019-05-18T07:15:46.553Z,714.38
2019-05-18T07:16:46.538Z,725.63
2019-05-18T07:17:46.536Z,753.75
2019-05-18T07:18:46.538Z,781.88
2019-05-18T07:19:46.533Z,781.88
2019-05-18T07:20:46.534Z,765.00
2019-05-18T07:21:46.534Z,742.50
2019-05-18T07:22:46.529Z,736.88
2019-05-18T07:23:46.528Z,759.38
2019-05-18T07:24:46.522Z,793.13
2019-05-18T07:25:46.523Z,826.88
2019-05-18T07:26:46.527Z,871.88
2019-05-18T07:27:46.524Z,883.13
2019-05-18T07:28:46.520Z,922.50
2019-05-18T07:29:46.518Z,1018.13
2019-05-18T07:30:46.527Z,1091.25
2019-05-18T07:31:46.526Z,1164.38
2019-05-18T07:32:46.526Z,1248.75
2019-05-18T07:33:46.525Z,1991.25
2019-05-18T07:34:46.525Z,2486.25
2019-05-18T07:35:46.524Z,1957.50
2019-05-18T07:36:46.520Z,1873.13
2019-05-18T07:37:46.522Z,1558.13
2019-05-18T07:38:46.520Z,1850.63
2019-05-18T07:39:46.521Z,1653.75
2019-05-18T07:40:46.525Z,2655.00
2019-05-18T07:41:47.318Z,2486.25
2019-05-18T07:42:46.529Z,2396.25
2019-05-18T07:43:46.527Z,2244.38
2019-05-18T07:44:46.537Z,2098.13
2019-05-18T07:45:46.539Z,3296.25
2019-05-18T07:46:46.544Z,2053.13
2019-05-18T07:47:46.547Z,2581.88
2019-05-18T07:48:46.547Z,1693.13
2019-05-18T07:49:46.599Z,1631.25
2019-05-18T07:50:46.556Z,1541.25
2019-05-18T07:51:46.561Z,1642.50
2019-05-18T07:52:46.570Z,2604.38
2019-05-18T07:53:46.574Z,2109.38
2019-05-18T07:54:46.580Z,2666.25
2019-05-18T07:55:46.583Z,3313.13
2019-05-18T07:56:46.583Z,3071.25
2019-05-18T07:57:46.589Z,3363.75
2019-05-18T07:58:46.598Z,2154.38
2019-05-18T07:59:46.605Z,2283.75
2019-05-18T08:00:46.606Z,1676.25
2019-05-18T08:01:46.612Z,1321.88
2019-05-18T08:02:46.622Z,1203.75
2019-05-18T08:03:46.628Z,1102.50
2019-05-18T08:04:46.638Z,1035.00
2019-05-18T08:05:46.646Z,1018.13
2019-05-18T08:06:46.651Z,1023.75
2019-05-18T08:07:46.654Z,1046.25
2019-05-18T08:08:46.658Z,1085.63
2019-05-18T08:09:46.674Z,1175.63
2019-05-18T08:10:46.674Z,1271.25
2019-05-18T08:11:46.681Z,1451.25
2019-05-18T08:12:46.695Z,2058.75
2019-05-18T08:13:46.697Z,3667.50
2019-05-18T08:14:46.699Z,2272.50
2019-05-18T08:15:46.702Z,2182.50
2019-05-18T08:16:46.713Z,1822.50
2019-05-18T08:17:46.719Z,1518.75
2019-05-18T08:18:46.723Z,1400.63
2019-05-18T08:19:46.730Z,1389.38
2019-05-18T08:20:46.733Z,1321.88
2019-05-18T08:21:53.399Z,1361.25
2019-05-18T08:22:46.743Z,1389.38
2019-05-18T08:23:46.800Z,1507.50
2019-05-18T08:24:46.759Z,1856.25
2019-05-18T08:25:46.767Z,2210.63
2019-05-18T08:26:46.775Z,4201.88
2019-05-18T08:27:46.784Z,4505.63
2019-05-18T08:28:46.788Z,4320.00
2019-05-18T08:29:46.791Z,3971.25
2019-05-18T08:30:46.800Z,3808.13
2019-05-18T08:31:46.807Z,3791.25
2019-05-18T08:32:46.812Z,3768.75
2019-05-18T08:33:46.817Z,3678.75
2019-05-18T08:34:46.823Z,3712.50
2019-05-18T08:35:46.833Z,3870.00
2019-05-18T08:36:46.845Z,3735.00
2019-05-18T08:37:46.854Z,3577.50
2019-05-18T08:38:46.865Z,3802.50
2019-05-18T08:39:46.877Z,3526.88
2019-05-18T08:40:46.883Z,3110.63
2019-05-18T08:41:48.884Z,2728.13
2019-05-18T08:42:46.908Z,2846.25
2019-05-18T08:43:46.919Z,2283.75
2019-05-18T08:44:46.935Z,2458.13
2019-05-18T08:45:46.947Z,2272.50
2019-05-18T08:46:46.957Z,2019.38
2019-05-18T08:47:46.975Z,1822.50
2019-05-18T08:48:46.986Z,2210.63
2019-05-18T08:49:46.999Z,2064.38
2019-05-18T08:50:47.010Z,2115.00
2019-05-18T08:51:47.019Z,2401.88
2019-05-18T08:52:47.035Z,2356.88
2019-05-18T08:53:47.069Z,2216.25
2019-05-18T08:54:47.062Z,2368.13
2019-05-18T08:55:47.063Z,2334.38
2019-05-18T08:56:47.088Z,2244.38
2019-05-18T08:57:47.114Z,3026.25
2019-05-18T08:58:47.107Z,2300.63
2019-05-18T08:59:47.117Z,2435.63
2019-05-18T09:00:47.126Z,2576.25
2019-05-18T09:01:47.136Z,2913.75
2019-05-18T09:02:47.156Z,3228.75
2019-05-18T09:03:47.164Z,2210.63
2019-05-18T09:04:47.172Z,2289.38
2019-05-18T09:05:47.184Z,2244.38
2019-05-18T09:06:47.194Z,1963.13
2019-05-18T09:07:47.203Z,2047.50
2019-05-18T09:08:47.220Z,2413.13
2019-05-18T09:09:47.233Z,3133.13
2019-05-18T09:10:47.246Z,3386.25
2019-05-18T09:11:47.256Z,2930.63
2019-05-18T09:12:47.294Z,2913.75
2019-05-18T09:13:47.274Z,2548.13
2019-05-18T09:14:47.284Z,2975.63
2019-05-18T09:15:47.295Z,3841.88
2019-05-18T09:16:47.310Z,3639.38
2019-05-18T09:17:47.323Z,3403.13
2019-05-18T09:18:47.331Z,3656.25
2019-05-18T09:19:47.341Z,3853.13
2019-05-18T09:20:47.359Z,3858.75
2019-05-18T09:21:47.371Z,3836.25
2019-05-18T09:22:47.387Z,3993.75
2019-05-18T09:23:47.399Z,4123.13
2019-05-18T09:24:47.408Z,4179.38
2019-05-18T09:25:47.427Z,4348.13
2019-05-18T09:26:47.437Z,4421.25
2019-05-18T09:27:47.493Z,4573.13
2019-05-18T09:28:47.470Z,4595.63
2019-05-18T09:29:47.486Z,4415.63
2019-05-18T09:30:47.499Z,4494.38
2019-05-18T09:31:47.518Z,4590.00
2019-05-18T09:32:47.525Z,4606.88
2019-05-18T09:33:47.545Z,4730.63
2019-05-18T09:34:47.561Z,4758.75
2019-05-18T09:35:47.579Z,4730.63
2019-05-18T09:36:47.593Z,4815.00
2019-05-18T09:37:47.609Z,4882.50
2019-05-18T09:38:47.652Z,4983.75
2019-05-18T09:39:47.647Z,5085.00
2019-05-18T09:40:47.670Z,5068.13
2019-05-18T09:41:47.688Z,5152.50
2019-05-18T09:42:47.708Z,5203.13
2019-05-18T09:43:47.724Z,5040.00
2019-05-18T09:44:47.746Z,4027.50
2019-05-18T09:45:47.761Z,5028.75
2019-05-18T09:46:47.779Z,5276.25
2019-05-18T09:47:47.797Z,2941.88
2019-05-18T09:48:47.821Z,3583.13
2019-05-18T09:49:47.840Z,1456.88
2019-05-18T09:50:47.858Z,1867.50
2019-05-18T09:51:47.876Z,1704.38
2019-05-18T09:52:47.902Z,4151.25
2019-05-18T09:53:51.738Z,1614.38
2019-05-18T09:54:47.942Z,1552.50
2019-05-18T09:55:47.957Z,1766.25
2019-05-18T09:56:47.976Z,1614.38
2019-05-18T09:57:47.990Z,1670.63
2019-05-18T09:58:48.007Z,2120.63
2019-05-18T09:59:48.024Z,3695.63
2019-05-18T10:00:48.047Z,3751.88
2019-05-18T10:01:48.061Z,3571.88
2019-05-18T10:02:48.080Z,3408.75
2019-05-18T10:03:48.091Z,3268.13
2019-05-18T10:04:48.102Z,3178.13
2019-05-18T10:05:48.120Z,3099.38
2019-05-18T10:06:48.141Z,3082.50
2019-05-18T10:07:48.157Z,2953.13
2019-05-18T10:08:48.169Z,3116.25
2019-05-18T10:09:48.184Z,3054.38
2019-05-18T10:10:48.204Z,2941.88
2019-05-18T10:11:48.236Z,2840.63
2019-05-18T10:12:48.242Z,2829.38
2019-05-18T10:13:48.265Z,2778.75
2019-05-18T10:14:48.277Z,2756.25
2019-05-18T10:15:48.295Z,2694.38
2019-05-18T10:16:48.313Z,2711.25
2019-05-18T10:17:48.326Z,2761.88
2019-05-18T10:18:48.344Z,2846.25
2019-05-18T10:19:48.359Z,2919.38
2019-05-18T10:20:48.381Z,2655.00
2019-05-18T10:21:48.401Z,3003.75
2019-05-18T10:22:59.211Z,3037.50
2019-05-18T10:23:48.432Z,3521.25
2019-05-18T10:24:48.456Z,3673.13
2019-05-18T10:25:48.474Z,4033.13
2019-05-18T10:26:48.495Z,4460.63
2019-05-18T10:27:48.512Z,4336.88
2019-05-18T10:28:48.527Z,3020.63
2019-05-18T10:29:48.598Z,4854.38
2019-05-18T10:30:48.563Z,4905.00
2019-05-18T10:31:48.579Z,4775.63
2019-05-18T10:32:48.605Z,4888.13
2019-05-18T10:33:48.620Z,4601.25
2019-05-18T10:34:48.637Z,4325.63
2019-05-18T10:35:48.653Z,4218.75
2019-05-18T10:36:48.666Z,4449.38
2019-05-18T10:37:48.684Z,4741.88
2019-05-18T10:38:48.704Z,5023.13
2019-05-18T10:39:48.722Z,5073.75
2019-05-18T10:40:48.735Z,5130.00
2019-05-18T10:41:48.755Z,5197.50
2019-05-18T10:42:48.774Z,5349.38
2019-05-18T10:43:48.793Z,5400.00
2019-05-18T10:44:48.814Z,4668.75
2019-05-18T10:45:48.830Z,3330.00
2019-05-18T10:46:48.849Z,5298.75
2019-05-18T10:47:48.867Z,5495.63
2019-05-18T10:48:48.879Z,5450.63
2019-05-18T10:49:48.898Z,5377.50
2019-05-18T10:50:48.916Z,5546.25
2019-05-18T10:51:48.934Z,5574.38
2019-05-18T10:52:48.952Z,5546.25
2019-05-18T10:53:48.970Z,5591.25
2019-05-18T10:54:48.979Z,5394.38
2019-05-18T10:55:48.997Z,5152.50
2019-05-18T10:56:49.019Z,4595.63
2019-05-18T10:57:49.037Z,4781.25
2019-05-18T10:58:49.057Z,5034.38
2019-05-18T10:59:49.070Z,5568.75
2019-05-18T11:00:49.085Z,5613.75
2019-05-18T11:01:49.101Z,5675.63
2019-05-18T11:02:49.119Z,5771.25
2019-05-18T11:03:49.135Z,4145.63
2019-05-18T11:04:49.156Z,4747.50
2019-05-18T11:05:49.174Z,2846.25
2019-05-18T11:06:49.187Z,2463.75
2019-05-18T11:07:49.204Z,6086.25
2019-05-18T11:08:49.215Z,5118.75
2019-05-18T11:09:49.231Z,1316.25
2019-05-18T11:10:49.252Z,5326.88
2019-05-18T11:11:49.265Z,1378.13
2019-05-18T11:12:49.276Z,5760.00
2019-05-18T11:13:49.293Z,1828.13
2019-05-18T11:14:49.308Z,3470.63
2019-05-18T11:15:49.324Z,973.13
2019-05-18T11:16:49.342Z,1119.38
2019-05-18T11:17:49.357Z,1766.25
2019-05-18T11:18:49.368Z,1884.38
2019-05-18T11:19:49.377Z,1698.75
2019-05-18T11:20:49.388Z,1541.25
2019-05-18T11:21:49.401Z,1704.38
2019-05-18T11:22:49.414Z,1670.63
2019-05-18T11:23:49.428Z,1625.63
2019-05-18T11:24:49.442Z,1631.25
2019-05-18T11:25:49.455Z,1597.50
2019-05-18T11:26:49.466Z,1513.13
2019-05-18T11:27:49.475Z,1400.63
2019-05-18T11:28:49.489Z,1456.88
2019-05-18T11:29:49.497Z,1451.25
2019-05-18T11:30:49.507Z,1473.75
2019-05-18T11:31:49.517Z,1456.88
2019-05-18T11:32:49.529Z,1411.88
2019-05-18T11:33:49.535Z,1428.75
2019-05-18T11:34:49.544Z,1462.50
2019-05-18T11:35:49.551Z,1473.75
2019-05-18T11:36:49.565Z,1456.88
2019-05-18T11:37:49.575Z,1327.50
2019-05-18T11:38:49.586Z,1282.50
2019-05-18T11:39:49.596Z,1265.63
2019-05-18T11:40:49.601Z,1288.13
2019-05-18T11:41:49.609Z,1372.50
2019-05-18T11:42:49.623Z,1361.25
2019-05-18T11:43:49.636Z,1338.75
2019-05-18T11:44:49.646Z,1316.25
2019-05-18T11:45:49.651Z,1316.25
2019-05-18T11:46:49.649Z,1333.13
2019-05-18T11:47:49.656Z,1305.00
2019-05-18T11:48:49.669Z,1276.88
2019-05-18T11:49:49.709Z,1265.63
2019-05-18T11:50:49.684Z,1243.13
2019-05-18T11:51:49.696Z,1226.25
2019-05-18T11:52:49.695Z,1209.38
2019-05-18T11:53:57.815Z,1192.50
2019-05-18T11:54:49.714Z,1158.75
2019-05-18T11:55:49.719Z,1136.25
2019-05-18T11:56:49.743Z,1113.75
2019-05-18T11:57:49.738Z,1113.75
2019-05-18T11:58:49.742Z,1096.88
2019-05-18T11:59:49.747Z,1096.88
2019-05-18T12:00:49.760Z,995.63
2019-05-18T12:01:49.766Z,905.63
2019-05-18T12:02:49.771Z,866.25
2019-05-18T12:03:49.775Z,759.38
2019-05-18T12:04:49.781Z,703.13
2019-05-18T12:05:49.783Z,675.00
2019-05-18T12:06:49.795Z,635.63
2019-05-18T12:07:49.799Z,630.00
2019-05-18T12:08:49.823Z,613.13
2019-05-18T12:09:49.814Z,635.63
2019-05-18T12:10:49.822Z,630.00
2019-05-18T12:11:49.827Z,613.13
2019-05-18T12:12:49.829Z,613.13
2019-05-18T12:13:49.833Z,585.00
2019-05-18T12:14:49.842Z,540.00
2019-05-18T12:15:49.846Z,551.25
2019-05-18T12:16:49.850Z,556.88
2019-05-18T12:17:49.852Z,534.38
2019-05-18T12:18:49.855Z,511.88
2019-05-18T12:19:49.859Z,500.63
2019-05-18T12:20:49.868Z,500.63
2019-05-18T12:21:49.881Z,495.00
2019-05-18T12:22:49.881Z,495.00
2019-05-18T12:23:49.885Z,489.38
2019-05-18T12:24:49.884Z,489.38
2019-05-18T12:25:50.832Z,489.38
2019-05-18T12:26:49.937Z,489.38
2019-05-18T12:27:49.905Z,489.38
2019-05-18T12:28:49.904Z,489.38
2019-05-18T12:29:49.911Z,478.13
2019-05-18T12:30:49.908Z,472.50
2019-05-18T12:31:49.911Z,461.25
2019-05-18T12:32:49.921Z,506.25
2019-05-18T12:33:49.924Z,483.75
2019-05-18T12:34:49.930Z,455.63
2019-05-18T12:35:49.937Z,450.00
2019-05-18T12:36:49.932Z,455.63
2019-05-18T12:37:49.938Z,444.38